createdAt,value
2016-11-24T00:00:39.556Z,5.46
2016-11-24T00:01:38.850Z,5.5
2016-11-24T00:02:38.187Z,5.48
2016-11-24T00:03:38.059Z,5.43
2016-11-24T00:04:37.946Z,5.39
2016-11-24T00:05:38.169Z,5.5
2016-11-24T00:06:37.813Z,5.47
2016-11-24T00:07:38.246Z,5.48
2016-11-24T00:08:38.266Z,5.46
2016-11-24T00:09:38.324Z,5.47
2016-11-24T00:10:37.880Z,5.48
2016-11-24T00:11:37.863Z,5.59
2016-11-24T00:12:38.995Z,5.59
2016-11-24T00:13:38.274Z,5.62
2016-11-24T00:14:39.450Z,5.59
2016-11-24T00:15:38.354Z,5.69
2016-11-24T00:16:38.253Z,5.72
2016-11-24T00:17:38.586Z,5.66
2016-11-24T00:18:38.620Z,5.76
2016-11-24T00:19:39.212Z,5.66
2016-11-24T00:20:39.478Z,5.68
2016-11-24T00:21:38.488Z,5.71
2016-11-24T00:22:38.702Z,5.72
2016-11-24T00:23:38.501Z,5.71
2016-11-24T00:24:39.031Z,5.72
2016-11-24T00:25:38.179Z,5.69
2016-11-24T00:26:38.427Z,5.62
2016-11-24T00:27:38.171Z,5.57
2016-11-24T00:28:38.517Z,5.68
2016-11-24T00:29:39.098Z,5.65
2016-11-24T00:30:38.928Z,5.76
2016-11-24T00:31:38.495Z,5.73
2016-11-24T00:32:39.522Z,5.71
2016-11-24T00:33:38.610Z,5.69
2016-11-24T00:34:39.039Z,5.76
2016-11-24T00:35:38.590Z,5.72
2016-11-24T00:36:38.501Z,5.75
2016-11-24T00:37:38.506Z,5.75
2016-11-24T00:38:38.495Z,5.75
2016-11-24T00:39:38.502Z,5.65
2016-11-24T00:40:39.425Z,5.72
2016-11-24T00:41:38.987Z,5.71
2016-11-24T00:42:39.292Z,5.71
2016-11-24T00:43:38.424Z,5.75
2016-11-24T00:44:38.482Z,5.72
2016-11-24T00:45:38.353Z,5.76
2016-11-24T00:46:39.143Z,5.73
2016-11-24T00:47:38.459Z,5.8
2016-11-24T00:48:39.144Z,5.76
2016-11-24T00:49:39.249Z,5.76
2016-11-24T00:50:39.125Z,5.73
2016-11-24T00:51:39.619Z,5.73
2016-11-24T00:52:38.583Z,5.8
2016-11-24T00:53:38.625Z,5.66
2016-11-24T00:54:39.283Z,5.79
2016-11-24T00:55:39.259Z,5.73
2016-11-24T00:56:38.958Z,5.75
2016-11-24T00:57:39.353Z,5.75
2016-11-24T00:58:39.000Z,5.83
2016-11-24T00:59:39.211Z,5.79
2016-11-24T01:00:38.850Z,5.83
2016-11-24T01:01:38.970Z,5.89
2016-11-24T01:02:40.164Z,5.82
2016-11-24T01:03:39.398Z,5.89
2016-11-24T01:04:39.499Z,5.87
2016-11-24T01:05:40.381Z,5.86
2016-11-24T01:06:39.364Z,5.84
2016-11-24T01:07:39.122Z,5.87
2016-11-24T01:08:38.837Z,5.82
2016-11-24T01:09:39.373Z,5.84
2016-11-24T01:10:39.117Z,5.84
2016-11-24T01:11:39.269Z,5.93
2016-11-24T01:12:39.699Z,5.89
2016-11-24T01:13:39.564Z,5.91
2016-11-24T01:14:39.275Z,5.9
2016-11-24T01:15:39.698Z,5.98
2016-11-24T01:16:39.204Z,5.97
2016-11-24T01:17:39.725Z,5.98
2016-11-24T01:18:39.284Z,5.97
2016-11-24T01:19:40.532Z,6.02
2016-11-24T01:20:39.787Z,6.01
2016-11-24T01:21:39.906Z,5.99
2016-11-24T01:22:38.678Z,5.97
2016-11-24T01:23:39.523Z,5.99
2016-11-24T01:24:39.035Z,5.98
2016-11-24T01:25:39.607Z,6.07
2016-11-24T01:26:39.539Z,6.02
2016-11-24T01:27:39.544Z,6.02
2016-11-24T01:28:39.252Z,6.08
2016-11-24T01:29:39.462Z,6.12
2016-11-24T01:30:40.288Z,6.11
2016-11-24T01:31:39.166Z,6.12
2016-11-24T01:32:39.269Z,6.09
2016-11-24T01:33:38.976Z,6.04
2016-11-24T01:34:39.618Z,6.09
2016-11-24T01:35:39.760Z,6.14
2016-11-24T01:36:39.538Z,6.14
2016-11-24T01:37:39.477Z,6.11
2016-11-24T01:38:39.402Z,6.2
2016-11-24T01:39:39.081Z,6.19
2016-11-24T01:40:39.856Z,6.16
2016-11-24T01:41:40.255Z,6.17
2016-11-24T01:42:39.426Z,6.17
2016-11-24T01:43:40.047Z,6.12
2016-11-24T01:44:40.308Z,6.19
2016-11-24T01:45:40.264Z,6.16
2016-11-24T01:46:39.259Z,6.14
2016-11-24T01:47:39.980Z,6.14
2016-11-24T01:48:39.434Z,6.08
2016-11-24T01:49:39.479Z,6.2
2016-11-24T01:50:39.417Z,6.17
2016-11-24T01:51:39.450Z,6.24
2016-11-24T01:52:39.770Z,6.17
2016-11-24T01:53:39.949Z,6.17
2016-11-24T01:54:40.237Z,6.27
2016-11-24T01:55:39.865Z,6.3
2016-11-24T01:56:40.010Z,6.27
2016-11-24T01:57:39.761Z,6.33
2016-11-24T01:58:39.609Z,6.33
2016-11-24T01:59:39.699Z,6.27
2016-11-24T02:00:40.030Z,6.39
2016-11-24T02:01:39.753Z,6.39
2016-11-24T02:02:41.298Z,6.33
2016-11-24T02:03:39.916Z,6.35
2016-11-24T02:04:40.132Z,6.42
2016-11-24T02:05:40.830Z,6.49
2016-11-24T02:06:40.240Z,6.52
2016-11-24T02:07:39.657Z,6.62
2016-11-24T02:08:40.064Z,6.57
2016-11-24T02:09:39.595Z,6.62
2016-11-24T02:10:41.082Z,6.69
2016-11-24T02:11:40.271Z,6.67
2016-11-24T02:12:39.864Z,6.66
2016-11-24T02:13:40.959Z,6.93
2016-11-24T02:14:40.737Z,6.99
2016-11-24T02:15:40.174Z,7.14
2016-11-24T02:16:41.081Z,7.21
2016-11-24T02:17:40.133Z,7.38
2016-11-24T02:18:39.886Z,7.35
2016-11-24T02:19:39.882Z,7.5
2016-11-24T02:20:40.193Z,7.6
2016-11-24T02:21:40.150Z,7.72
2016-11-24T02:22:41.326Z,7.72
2016-11-24T02:23:40.540Z,7.8
2016-11-24T02:24:39.786Z,7.87
2016-11-24T02:25:40.900Z,7.93
2016-11-24T02:26:40.920Z,8.05
2016-11-24T02:27:40.469Z,8.06
2016-11-24T02:28:40.573Z,8.13
2016-11-24T02:29:40.429Z,8.24
2016-11-24T02:30:40.562Z,8.12
2016-11-24T02:31:40.982Z,8.27
2016-11-24T02:32:40.050Z,8.28
2016-11-24T02:33:40.737Z,8.28
2016-11-24T02:34:41.020Z,8.3
2016-11-24T02:35:40.352Z,8.28
2016-11-24T02:36:40.558Z,8.3
2016-11-24T02:37:40.011Z,8.36
2016-11-24T02:38:40.456Z,8.38
2016-11-24T02:39:40.908Z,8.36
2016-11-24T02:40:40.928Z,8.34
2016-11-24T02:41:40.803Z,8.37
2016-11-24T02:42:40.348Z,8.48
2016-11-24T02:43:40.385Z,8.36
2016-11-24T02:44:40.802Z,8.38
2016-11-24T02:45:41.118Z,8.49
2016-11-24T02:46:40.561Z,8.46
2016-11-24T02:47:40.346Z,8.49
2016-11-24T02:48:40.720Z,8.51
2016-11-24T02:49:40.860Z,8.52
2016-11-24T02:50:40.861Z,8.58
2016-11-24T02:51:40.776Z,8.56
2016-11-24T02:52:41.401Z,8.6
2016-11-24T02:53:40.597Z,8.6
2016-11-24T02:54:40.974Z,8.49
2016-11-24T02:55:40.286Z,8.52
2016-11-24T02:56:40.547Z,8.51
2016-11-24T02:57:41.120Z,8.52
2016-11-24T02:58:41.083Z,8.55
2016-11-24T02:59:40.736Z,8.46
2016-11-24T03:00:41.201Z,8.48
2016-11-24T03:01:40.660Z,8.61
2016-11-24T03:02:40.638Z,8.51
2016-11-24T03:03:42.203Z,8.51
2016-11-24T03:04:41.203Z,8.58
2016-11-24T03:05:40.602Z,8.58
2016-11-24T03:06:40.955Z,8.6
2016-11-24T03:07:41.369Z,8.66
2016-11-24T03:08:40.814Z,8.58
2016-11-24T03:09:41.486Z,8.61
2016-11-24T03:10:41.445Z,8.56
2016-11-24T03:11:40.787Z,8.67
2016-11-24T03:12:40.636Z,8.6
2016-11-24T03:13:41.007Z,8.55
2016-11-24T03:14:41.168Z,8.58
2016-11-24T03:15:41.343Z,8.63
2016-11-24T03:16:41.924Z,8.63
2016-11-24T03:17:42.902Z,8.66
2016-11-24T03:18:40.707Z,8.64
2016-11-24T03:19:41.498Z,8.6
2016-11-24T03:20:41.087Z,8.6
2016-11-24T03:21:40.990Z,8.53
2016-11-24T03:22:41.531Z,8.63
2016-11-24T03:23:41.389Z,8.52
2016-11-24T03:24:41.452Z,8.61
2016-11-24T03:25:40.903Z,8.56
2016-11-24T03:26:41.061Z,8.52
2016-11-24T03:27:40.958Z,8.46
2016-11-24T03:28:40.965Z,8.51
2016-11-24T03:29:41.419Z,8.6
2016-11-24T03:30:41.343Z,8.56
2016-11-24T03:31:41.376Z,8.7
2016-11-24T03:32:40.762Z,8.66
2016-11-24T03:33:41.785Z,8.67
2016-11-24T03:34:40.938Z,8.73
2016-11-24T03:35:41.715Z,8.7
2016-11-24T03:36:42.173Z,8.7
2016-11-24T03:37:41.591Z,8.76
2016-11-24T03:38:41.867Z,8.69
2016-11-24T03:39:41.713Z,8.76
2016-11-24T03:40:41.278Z,8.71
2016-11-24T03:41:41.026Z,8.78
2016-11-24T03:42:41.056Z,8.69
2016-11-24T03:43:41.021Z,8.74
2016-11-24T03:44:41.229Z,8.69
2016-11-24T03:45:42.471Z,8.74
2016-11-24T03:46:42.531Z,8.7
2016-11-24T03:47:41.847Z,8.74
2016-11-24T03:48:41.731Z,8.71
2016-11-24T03:49:41.698Z,8.64
2016-11-24T03:50:41.726Z,8.73
2016-11-24T03:51:42.044Z,8.78
2016-11-24T03:52:41.941Z,8.76
2016-11-24T03:53:41.601Z,8.82
2016-11-24T03:54:41.359Z,8.79
2016-11-24T03:55:41.549Z,8.82
2016-11-24T03:56:41.328Z,8.81
2016-11-24T03:57:42.033Z,8.79
2016-11-24T03:58:42.029Z,8.76
2016-11-24T03:59:41.650Z,8.76
2016-11-24T04:00:41.900Z,8.76
2016-11-24T04:01:41.834Z,8.7
2016-11-24T04:02:42.029Z,8.71
2016-11-24T04:03:41.817Z,8.67
2016-11-24T04:04:42.041Z,8.71
2016-11-24T04:05:42.597Z,8.7
2016-11-24T04:06:41.385Z,8.7
2016-11-24T04:07:42.462Z,8.73
2016-11-24T04:08:41.621Z,8.58
2016-11-24T04:09:41.685Z,8.7
2016-11-24T04:10:41.716Z,8.73
2016-11-24T04:11:41.941Z,8.67
2016-11-24T04:12:41.937Z,8.63
2016-11-24T04:13:42.073Z,8.7
2016-11-24T04:14:42.082Z,8.74
2016-11-24T04:15:41.647Z,8.64
2016-11-24T04:16:43.236Z,8.73
2016-11-24T04:17:41.639Z,8.82
2016-11-24T04:18:41.787Z,8.74
2016-11-24T04:19:41.876Z,8.79
2016-11-24T04:20:42.382Z,8.82
2016-11-24T04:21:42.152Z,8.79
2016-11-24T04:22:42.044Z,8.84
2016-11-24T04:23:41.893Z,8.78
2016-11-24T04:24:42.352Z,8.82
2016-11-24T04:25:41.996Z,8.76
2016-11-24T04:26:42.328Z,8.82
2016-11-24T04:27:42.432Z,8.84
2016-11-24T04:28:42.268Z,8.78
2016-11-24T04:29:42.694Z,8.79
2016-11-24T04:30:41.901Z,8.81
2016-11-24T04:31:42.665Z,8.87
2016-11-24T04:32:42.773Z,8.85
2016-11-24T04:33:42.078Z,8.78
2016-11-24T04:34:42.023Z,8.81
2016-11-24T04:35:42.520Z,8.76
2016-11-24T04:36:42.001Z,8.76
2016-11-24T04:37:42.673Z,8.79
2016-11-24T04:38:42.441Z,8.78
2016-11-24T04:39:42.069Z,8.76
2016-11-24T04:40:43.253Z,8.71
2016-11-24T04:41:42.621Z,8.69
2016-11-24T04:42:42.670Z,8.7
2016-11-24T04:43:42.150Z,8.76
2016-11-24T04:44:42.836Z,8.71
2016-11-24T04:45:42.831Z,8.7
2016-11-24T04:46:42.637Z,8.66
2016-11-24T04:47:42.969Z,8.67
2016-11-24T04:48:42.395Z,8.71
2016-11-24T04:49:43.459Z,8.66
2016-11-24T04:50:42.492Z,8.78
2016-11-24T04:51:43.412Z,8.66
2016-11-24T04:52:42.807Z,8.66
2016-11-24T04:53:42.533Z,8.7
2016-11-24T04:54:42.490Z,8.66
2016-11-24T04:55:42.601Z,8.7
2016-11-24T04:56:42.552Z,8.74
2016-11-24T04:57:42.348Z,8.69
2016-11-24T04:58:42.552Z,8.67
2016-11-24T04:59:43.050Z,8.64
2016-11-24T05:00:42.715Z,8.61
2016-11-24T05:01:43.298Z,8.74
2016-11-24T05:02:42.851Z,8.63
2016-11-24T05:03:43.026Z,8.63
2016-11-24T05:04:43.059Z,8.61
2016-11-24T05:05:43.118Z,8.51
2016-11-24T05:06:42.728Z,8.53
2016-11-24T05:07:42.967Z,8.52
2016-11-24T05:08:42.926Z,8.46
2016-11-24T05:09:42.439Z,8.44
2016-11-24T05:10:41.841Z,8.46
2016-11-24T05:11:43.323Z,8.52
2016-11-24T05:12:42.922Z,8.44
2016-11-24T05:13:44.091Z,8.46
2016-11-24T05:14:44.058Z,8.48
2016-11-24T05:15:44.050Z,8.45
2016-11-24T05:16:43.681Z,8.49
2016-11-24T05:17:43.046Z,8.52
2016-11-24T05:18:42.717Z,8.49
2016-11-24T05:19:44.013Z,8.48
2016-11-24T05:20:43.348Z,8.46
2016-11-24T05:21:43.322Z,8.48
2016-11-24T05:22:42.982Z,8.51
2016-11-24T05:23:44.766Z,8.52
2016-11-24T05:24:43.943Z,8.51
2016-11-24T05:25:44.839Z,8.48
2016-11-24T05:26:44.018Z,8.49
2016-11-24T05:27:44.688Z,8.52
2016-11-24T05:28:42.985Z,8.52
2016-11-24T05:29:43.333Z,8.51
2016-11-24T05:30:43.638Z,8.48
2016-11-24T05:31:43.518Z,8.48
2016-11-24T05:32:43.331Z,8.49
2016-11-24T05:33:43.659Z,8.49
2016-11-24T05:34:42.849Z,8.46
2016-11-24T05:35:43.331Z,8.44
2016-11-24T05:36:44.153Z,8.46
2016-11-24T05:37:43.492Z,8.48
2016-11-24T05:38:42.902Z,8.46
2016-11-24T05:39:43.120Z,8.46
2016-11-24T05:40:44.339Z,8.41
2016-11-24T05:41:43.192Z,8.44
2016-11-24T05:42:43.540Z,8.46
2016-11-24T05:43:43.153Z,8.44
2016-11-24T05:44:44.001Z,8.37
2016-11-24T05:45:43.973Z,8.44
2016-11-24T05:46:44.228Z,8.49
2016-11-24T05:47:44.398Z,8.51
2016-11-24T05:48:44.946Z,8.42
2016-11-24T05:49:43.279Z,8.51
2016-11-24T05:50:43.186Z,8.45
2016-11-24T05:51:45.258Z,8.49
2016-11-24T05:52:43.939Z,8.46
2016-11-24T05:53:44.276Z,8.45
2016-11-24T05:54:44.017Z,8.49
2016-11-24T05:55:44.117Z,8.45
2016-11-24T05:56:44.409Z,8.31
2016-11-24T05:57:44.625Z,8.37
2016-11-24T05:58:44.181Z,8.33
2016-11-24T05:59:44.803Z,8.36
2016-11-24T06:00:44.238Z,8.42
2016-11-24T06:01:44.214Z,8.49
2016-11-24T06:02:44.796Z,8.53
2016-11-24T06:03:43.752Z,8.49
2016-11-24T06:04:44.395Z,8.46
2016-11-24T06:05:44.922Z,8.48
2016-11-24T06:06:44.357Z,8.44
2016-11-24T06:07:44.639Z,8.46
2016-11-24T06:08:45.293Z,8.45
2016-11-24T06:09:44.124Z,8.37
2016-11-24T06:10:43.720Z,8.46
2016-11-24T06:11:44.809Z,8.42
2016-11-24T06:12:44.526Z,8.37
2016-11-24T06:13:44.411Z,8.45
2016-11-24T06:14:45.011Z,8.45
2016-11-24T06:15:45.820Z,8.44
2016-11-24T06:16:44.172Z,8.41
2016-11-24T06:17:44.247Z,8.45
2016-11-24T06:18:45.441Z,8.45
2016-11-24T06:19:44.321Z,8.51
2016-11-24T06:20:44.409Z,8.48
2016-11-24T06:21:45.346Z,8.49
2016-11-24T06:22:44.099Z,8.49
2016-11-24T06:23:44.430Z,8.51
2016-11-24T06:24:44.067Z,8.49
2016-11-24T06:25:44.742Z,8.49
2016-11-24T06:26:44.165Z,8.51
2016-11-24T06:27:44.442Z,8.49
2016-11-24T06:28:45.055Z,8.52
2016-11-24T06:29:44.201Z,8.48
2016-11-24T06:30:45.732Z,8.49
2016-11-24T06:31:44.566Z,8.52
2016-11-24T06:32:44.555Z,8.51
2016-11-24T06:33:44.517Z,8.51
2016-11-24T06:34:44.144Z,8.48
2016-11-24T06:35:44.123Z,8.48
2016-11-24T06:36:45.293Z,8.51
2016-11-24T06:37:44.157Z,8.49
2016-11-24T06:38:44.950Z,8.46
2016-11-24T06:39:44.933Z,8.46
2016-11-24T06:40:44.545Z,8.48
2016-11-24T06:41:45.169Z,8.51
2016-11-24T06:42:44.184Z,8.55
2016-11-24T06:43:44.143Z,8.52
2016-11-24T06:44:45.545Z,8.48
2016-11-24T06:45:45.944Z,8.48
2016-11-24T06:46:44.836Z,8.46
2016-11-24T06:47:44.706Z,8.53
2016-11-24T06:48:44.518Z,8.46
2016-11-24T06:49:44.775Z,8.42
2016-11-24T06:50:45.259Z,8.49
2016-11-24T06:51:44.896Z,8.38
2016-11-24T06:52:44.711Z,8.34
2016-11-24T06:53:44.922Z,8.48
2016-11-24T06:54:44.532Z,8.34
2016-11-24T06:55:45.173Z,8.49
2016-11-24T06:56:44.950Z,8.49
2016-11-24T06:57:44.921Z,8.34
2016-11-24T06:58:46.303Z,8.38
2016-11-24T06:59:45.585Z,8.37
2016-11-24T07:00:44.641Z,8.41
2016-11-24T07:01:44.732Z,8.37
2016-11-24T07:02:44.878Z,8.36
2016-11-24T07:03:43.954Z,8.36
2016-11-24T07:04:43.666Z,8.34
2016-11-24T07:05:43.991Z,8.37
2016-11-24T07:06:43.751Z,8.34
2016-11-24T07:07:43.768Z,8.31
2016-11-24T07:08:43.718Z,8.31
2016-11-24T07:09:43.754Z,8.3
2016-11-24T07:10:43.765Z,8.31
2016-11-24T07:11:43.821Z,8.31
2016-11-24T07:12:43.821Z,8.33
2016-11-24T07:13:44.434Z,8.44
2016-11-24T07:14:44.176Z,8.37
2016-11-24T07:15:45.640Z,8.36
2016-11-24T07:16:45.341Z,8.34
2016-11-24T07:17:44.798Z,8.42
2016-11-24T07:18:45.418Z,8.33
2016-11-24T07:19:45.166Z,8.34
2016-11-24T07:20:45.858Z,8.34
2016-11-24T07:21:44.741Z,8.33
2016-11-24T07:22:45.654Z,8.34
2016-11-24T07:23:44.733Z,8.36
2016-11-24T07:24:45.222Z,8.38
2016-11-24T07:25:44.683Z,8.37
2016-11-24T07:26:44.880Z,8.37
2016-11-24T07:27:45.382Z,8.33
2016-11-24T07:28:45.788Z,8.33
2016-11-24T07:29:45.063Z,8.31
2016-11-24T07:30:44.886Z,8.34
2016-11-24T07:31:45.000Z,8.34
2016-11-24T07:32:45.550Z,8.31
2016-11-24T07:33:44.828Z,8.36
2016-11-24T07:34:44.831Z,8.37
2016-11-24T07:35:45.559Z,8.33
2016-11-24T07:36:45.909Z,8.36
2016-11-24T07:37:45.015Z,8.38
2016-11-24T07:38:44.763Z,8.41
2016-11-24T07:39:45.469Z,8.36
2016-11-24T07:40:44.998Z,8.38
2016-11-24T07:41:45.460Z,8.38
2016-11-24T07:42:45.438Z,8.31
2016-11-24T07:43:44.923Z,8.31
2016-11-24T07:44:45.514Z,8.37
2016-11-24T07:45:44.625Z,8.31
2016-11-24T07:46:45.469Z,8.37
2016-11-24T07:47:46.158Z,8.34
2016-11-24T07:48:45.538Z,8.38
2016-11-24T07:49:45.304Z,8.34
2016-11-24T07:50:44.694Z,8.41
2016-11-24T07:51:46.155Z,8.38
2016-11-24T07:52:45.878Z,8.41
2016-11-24T07:53:45.312Z,8.3
2016-11-24T07:54:46.224Z,8.31
2016-11-24T07:55:44.814Z,8.27
2016-11-24T07:56:45.861Z,8.3
2016-11-24T07:57:46.126Z,8.34
2016-11-24T07:58:45.739Z,8.31
2016-11-24T07:59:45.933Z,8.2
2016-11-24T08:00:46.122Z,8.13
2016-11-24T08:01:45.870Z,8.23
2016-11-24T08:02:45.646Z,8.3
2016-11-24T08:03:45.719Z,8.3
2016-11-24T08:04:45.791Z,8.24
2016-11-24T08:05:45.391Z,8.31
2016-11-24T08:06:46.312Z,8.36
2016-11-24T08:07:46.042Z,8.34
2016-11-24T08:08:45.690Z,8.34
2016-11-24T08:09:45.703Z,8.28
2016-11-24T08:10:45.530Z,8.31
2016-11-24T08:11:45.790Z,8.28
2016-11-24T08:12:46.151Z,8.33
2016-11-24T08:13:45.920Z,8.31
2016-11-24T08:14:46.122Z,8.3
2016-11-24T08:15:45.307Z,8.33
2016-11-24T08:16:46.309Z,8.33
2016-11-24T08:17:45.592Z,8.33
2016-11-24T08:18:45.798Z,8.36
2016-11-24T08:19:46.111Z,8.46
2016-11-24T08:20:46.615Z,8.44
2016-11-24T08:21:45.706Z,8.37
2016-11-24T08:22:46.562Z,8.37
2016-11-24T08:23:45.529Z,8.41
2016-11-24T08:24:46.174Z,8.42
2016-11-24T08:25:45.683Z,8.48
2016-11-24T08:26:46.025Z,8.51
2016-11-24T08:27:46.282Z,8.52
2016-11-24T08:28:45.944Z,8.48
2016-11-24T08:29:46.039Z,8.55
2016-11-24T08:30:46.461Z,8.51
2016-11-24T08:31:46.264Z,8.51
2016-11-24T08:32:46.121Z,8.58
2016-11-24T08:33:46.098Z,8.52
2016-11-24T08:34:46.953Z,8.53
2016-11-24T08:35:45.683Z,8.58
2016-11-24T08:36:46.962Z,8.58
2016-11-24T08:37:46.343Z,8.6
2016-11-24T08:38:46.126Z,8.6
2016-11-24T08:39:46.167Z,8.6
2016-11-24T08:40:46.027Z,8.61
2016-11-24T08:41:46.887Z,8.63
2016-11-24T08:42:46.661Z,8.66
2016-11-24T08:43:46.708Z,8.66
2016-11-24T08:44:46.637Z,8.61
2016-11-24T08:45:46.618Z,8.69
2016-11-24T08:46:45.942Z,8.7
2016-11-24T08:47:46.332Z,8.6
2016-11-24T08:48:46.823Z,8.64
2016-11-24T08:49:46.653Z,8.56
2016-11-24T08:50:46.433Z,8.71
2016-11-24T08:51:46.131Z,8.67
2016-11-24T08:52:47.221Z,8.73
2016-11-24T08:53:46.891Z,8.78
2016-11-24T08:54:46.103Z,8.79
2016-11-24T08:55:47.339Z,8.82
2016-11-24T08:56:47.502Z,8.81
2016-11-24T08:57:47.484Z,8.85
2016-11-24T08:58:46.167Z,8.85
2016-11-24T08:59:46.869Z,8.85
2016-11-24T09:00:46.289Z,8.84
2016-11-24T09:01:46.482Z,8.82
2016-11-24T09:02:47.295Z,8.81
2016-11-24T09:03:46.620Z,8.85
2016-11-24T09:04:46.366Z,8.85
2016-11-24T09:05:47.352Z,8.82
2016-11-24T09:06:47.093Z,8.88
2016-11-24T09:07:47.743Z,8.89
2016-11-24T09:08:47.391Z,8.87
2016-11-24T09:09:47.149Z,8.84
2016-11-24T09:10:46.332Z,9.03
2016-11-24T09:11:47.367Z,8.99
2016-11-24T09:12:47.352Z,9.06
2016-11-24T09:13:46.387Z,9.03
2016-11-24T09:14:46.648Z,8.97
2016-11-24T09:15:46.570Z,9.06
2016-11-24T09:16:47.270Z,9.18
2016-11-24T09:17:47.150Z,9.11
2016-11-24T09:18:46.611Z,9.25
2016-11-24T09:19:47.380Z,9.29
2016-11-24T09:20:46.201Z,9.26
2016-11-24T09:21:46.768Z,9.32
2016-11-24T09:22:47.488Z,9.29
2016-11-24T09:23:46.442Z,9.32
2016-11-24T09:24:46.590Z,9.28
2016-11-24T09:25:47.314Z,9.31
2016-11-24T09:26:46.607Z,9.37
2016-11-24T09:27:46.752Z,9.32
2016-11-24T09:28:47.065Z,9.32
2016-11-24T09:29:47.072Z,9.34
2016-11-24T09:30:47.213Z,9.41
2016-11-24T09:31:47.391Z,9.37
2016-11-24T09:32:47.066Z,9.29
2016-11-24T09:33:47.238Z,9.34
2016-11-24T09:34:47.166Z,9.31
2016-11-24T09:35:47.420Z,9.37
2016-11-24T09:36:47.985Z,9.34
2016-11-24T09:37:47.490Z,9.36
2016-11-24T09:38:47.219Z,9.4
2016-11-24T09:39:48.114Z,9.43
2016-11-24T09:40:47.172Z,9.41
2016-11-24T09:41:46.904Z,9.43
2016-11-24T09:42:47.484Z,9.37
2016-11-24T09:43:47.446Z,9.36
2016-11-24T09:44:47.219Z,9.29
2016-11-24T09:45:47.602Z,9.37
2016-11-24T09:46:47.327Z,9.31
2016-11-24T09:47:47.417Z,9.34
2016-11-24T09:48:47.459Z,9.34
2016-11-24T09:49:47.197Z,9.36
2016-11-24T09:50:47.557Z,9.31
2016-11-24T09:51:47.360Z,9.31
2016-11-24T09:52:47.724Z,9.31
2016-11-24T09:53:47.272Z,9.26
2016-11-24T09:54:47.530Z,9.28
2016-11-24T09:55:47.291Z,9.21
2016-11-24T09:56:47.479Z,9.22
2016-11-24T09:57:48.159Z,9.31
2016-11-24T09:58:47.112Z,9.29
2016-11-24T09:59:48.020Z,9.26
2016-11-24T10:00:47.218Z,9.22
2016-11-24T10:01:48.891Z,9.23
2016-11-24T10:02:48.118Z,9.23
2016-11-24T10:03:46.970Z,9.29
2016-11-24T10:04:47.525Z,9.31
2016-11-24T10:05:48.232Z,9.22
2016-11-24T10:06:47.620Z,9.34
2016-11-24T10:07:47.616Z,9.25
2016-11-24T10:08:48.114Z,9.23
2016-11-24T10:09:46.992Z,9.26
2016-11-24T10:10:47.503Z,9.34
2016-11-24T10:11:48.071Z,9.14
2016-11-24T10:12:47.857Z,9.28
2016-11-24T10:13:48.077Z,9.31
2016-11-24T10:14:47.550Z,9.32
2016-11-24T10:15:47.621Z,9.25
2016-11-24T10:16:47.808Z,9.34
2016-11-24T10:17:47.828Z,9.23
2016-11-24T10:18:48.090Z,9.23
2016-11-24T10:19:47.801Z,9.22
2016-11-24T10:20:48.002Z,9.34
2016-11-24T10:21:48.199Z,9.29
2016-11-24T10:22:47.652Z,9.23
2016-11-24T10:23:48.290Z,9.32
2016-11-24T10:24:48.334Z,9.37
2016-11-24T10:25:48.909Z,9.25
2016-11-24T10:26:48.168Z,9.31
2016-11-24T10:27:49.482Z,9.32
2016-11-24T10:28:47.920Z,9.28
2016-11-24T10:29:48.769Z,9.28
2016-11-24T10:30:48.552Z,9.31
2016-11-24T10:31:48.433Z,9.28
2016-11-24T10:32:47.693Z,9.29
2016-11-24T10:33:48.415Z,9.34
2016-11-24T10:34:48.620Z,9.28
2016-11-24T10:35:48.238Z,9.28
2016-11-24T10:36:47.688Z,9.31
2016-11-24T10:37:48.480Z,9.34
2016-11-24T10:38:48.534Z,9.31
2016-11-24T10:39:48.265Z,9.36
2016-11-24T10:40:47.830Z,9.39
2016-11-24T10:41:48.831Z,9.25
2016-11-24T10:42:48.285Z,9.34
2016-11-24T10:43:48.311Z,9.34
2016-11-24T10:44:48.614Z,9.41
2016-11-24T10:45:49.577Z,9.39
2016-11-24T10:46:48.337Z,9.48
2016-11-24T10:47:48.531Z,9.37
2016-11-24T10:48:48.812Z,9.46
2016-11-24T10:49:48.836Z,9.5
2016-11-24T10:50:48.566Z,9.41
2016-11-24T10:51:48.740Z,9.43
2016-11-24T10:52:48.544Z,9.47
2016-11-24T10:53:49.004Z,9.48
2016-11-24T10:54:49.541Z,9.44
2016-11-24T10:55:48.558Z,9.48
2016-11-24T10:56:48.595Z,9.47
2016-11-24T10:57:48.439Z,9.44
2016-11-24T10:58:48.462Z,9.61
2016-11-24T10:59:48.557Z,9.58
2016-11-24T11:00:49.284Z,9.58
2016-11-24T11:01:48.578Z,9.68
2016-11-24T11:02:48.657Z,9.66
2016-11-24T11:03:48.421Z,9.68
2016-11-24T11:04:49.507Z,9.74
2016-11-24T11:05:49.361Z,9.69
2016-11-24T11:06:48.680Z,9.77
2016-11-24T11:07:48.747Z,9.76
2016-11-24T11:08:48.558Z,9.77
2016-11-24T11:09:49.220Z,9.69
2016-11-24T11:10:48.502Z,9.65
2016-11-24T11:11:49.617Z,9.68
2016-11-24T11:12:49.062Z,9.66
2016-11-24T11:13:49.524Z,9.64
2016-11-24T11:14:48.490Z,9.65
2016-11-24T11:15:49.031Z,9.65
2016-11-24T11:16:48.532Z,9.64
2016-11-24T11:17:48.441Z,9.62
2016-11-24T11:18:48.375Z,9.73
2016-11-24T11:19:49.003Z,9.76
2016-11-24T11:20:49.336Z,9.82
2016-11-24T11:21:49.126Z,9.83
2016-11-24T11:22:49.375Z,9.69
2016-11-24T11:23:48.893Z,9.86
2016-11-24T11:24:48.473Z,9.66
2016-11-24T11:25:48.729Z,9.68
2016-11-24T11:26:48.969Z,9.69
2016-11-24T11:27:49.365Z,9.68
2016-11-24T11:28:48.542Z,9.83
2016-11-24T11:29:49.891Z,9.79
2016-11-24T11:30:49.646Z,9.79
2016-11-24T11:31:49.215Z,9.82
2016-11-24T11:32:49.305Z,9.77
2016-11-24T11:33:49.372Z,9.8
2016-11-24T11:34:49.418Z,9.79
2016-11-24T11:35:48.581Z,9.8
2016-11-24T11:36:48.941Z,9.87
2016-11-24T11:37:49.387Z,9.89
2016-11-24T11:38:49.670Z,9.94
2016-11-24T11:39:48.816Z,9.86
2016-11-24T11:40:48.552Z,9.84
2016-11-24T11:41:48.974Z,9.87
2016-11-24T11:42:49.534Z,9.94
2016-11-24T11:43:49.500Z,9.92
2016-11-24T11:44:49.504Z,9.86
2016-11-24T11:45:49.307Z,9.8
2016-11-24T11:46:48.946Z,9.76
2016-11-24T11:47:49.650Z,9.76
2016-11-24T11:48:50.391Z,9.83
2016-11-24T11:49:49.175Z,9.91
2016-11-24T11:50:49.192Z,9.89
2016-11-24T11:51:49.354Z,9.97
2016-11-24T11:52:49.939Z,9.83
2016-11-24T11:53:50.002Z,9.95
2016-11-24T11:54:49.679Z,9.95
2016-11-24T11:55:49.780Z,9.86
2016-11-24T11:56:49.433Z,9.86
2016-11-24T11:57:49.353Z,9.98
2016-11-24T11:58:50.346Z,9.98
2016-11-24T11:59:50.616Z,10.05
2016-11-24T12:00:49.811Z,10.04
2016-11-24T12:01:49.205Z,10.04
2016-11-24T12:02:49.263Z,9.99
2016-11-24T12:03:50.011Z,10.1
2016-11-24T12:04:49.747Z,10.17
2016-11-24T12:05:49.465Z,10.15
2016-11-24T12:06:49.105Z,10.09
2016-11-24T12:07:49.989Z,10.17
2016-11-24T12:08:50.083Z,10.19
2016-11-24T12:09:50.054Z,10.01
2016-11-24T12:10:50.278Z,10.17
2016-11-24T12:11:49.667Z,10.2
2016-11-24T12:12:49.681Z,10.31
2016-11-24T12:13:49.659Z,10.31
2016-11-24T12:14:49.531Z,10.3
2016-11-24T12:15:50.429Z,10.38
2016-11-24T12:16:50.005Z,10.35
2016-11-24T12:17:50.175Z,10.44
2016-11-24T12:18:50.185Z,10.49
2016-11-24T12:19:50.677Z,10.54
2016-11-24T12:20:49.980Z,10.51
2016-11-24T12:21:49.983Z,10.46
2016-11-24T12:22:50.018Z,10.53
2016-11-24T12:23:50.033Z,10.38
2016-11-24T12:24:50.521Z,10.53
2016-11-24T12:25:49.721Z,10.64
2016-11-24T12:26:49.874Z,10.53
2016-11-24T12:27:49.905Z,10.76
2016-11-24T12:28:50.368Z,10.81
2016-11-24T12:29:49.884Z,10.93
2016-11-24T12:30:50.076Z,10.92
2016-11-24T12:31:51.226Z,10.75
2016-11-24T12:32:49.744Z,10.86
2016-11-24T12:33:49.887Z,10.86
2016-11-24T12:34:50.438Z,11.08
2016-11-24T12:35:50.965Z,11.19
2016-11-24T12:36:50.031Z,11.27
2016-11-24T12:37:50.166Z,11.45
2016-11-24T12:38:50.191Z,11.59
2016-11-24T12:39:49.706Z,11.86
2016-11-24T12:40:50.521Z,11.97
2016-11-24T12:41:51.038Z,12
2016-11-24T12:42:50.756Z,12.12
2016-11-24T12:43:50.318Z,12.28
2016-11-24T12:44:50.637Z,12.36
2016-11-24T12:45:51.304Z,12.42
2016-11-24T12:46:50.416Z,12.55
2016-11-24T12:47:50.054Z,12.57
2016-11-24T12:48:50.487Z,12.67
2016-11-24T12:49:50.979Z,12.78
2016-11-24T12:50:50.930Z,12.78
2016-11-24T12:51:50.810Z,12.91
2016-11-24T12:52:51.286Z,12.87
2016-11-24T12:53:50.696Z,12.72
2016-11-24T12:54:50.191Z,12.45
2016-11-24T12:55:50.420Z,12.32
2016-11-24T12:56:50.293Z,12.18
2016-11-24T12:57:50.666Z,12.31
2016-11-24T12:58:51.016Z,12.46
2016-11-24T12:59:50.156Z,12.5
2016-11-24T13:00:50.418Z,12.65
2016-11-24T13:01:50.655Z,12.35
2016-11-24T13:02:51.283Z,12.2
2016-11-24T13:03:51.197Z,12.18
2016-11-24T13:04:51.026Z,12.12
2016-11-24T13:05:51.073Z,12.21
2016-11-24T13:06:51.841Z,12.28
2016-11-24T13:07:50.708Z,12.4
2016-11-24T13:08:51.259Z,12.02
2016-11-24T13:09:52.082Z,12.35
2016-11-24T13:10:50.765Z,12.43
2016-11-24T13:11:51.661Z,12.46
2016-11-24T13:12:51.021Z,12.6
2016-11-24T13:13:50.624Z,12.76
2016-11-24T13:14:51.213Z,12.73
2016-11-24T13:15:50.775Z,12.79
2016-11-24T13:16:51.332Z,12.98
2016-11-24T13:17:51.618Z,12.98